createdAt,value
2016-10-24T00:01:02.598Z,4
2016-10-24T00:02:16.137Z,4
2016-10-24T00:03:29.619Z,4
2016-10-24T00:04:42.600Z,4
2016-10-24T00:05:56.202Z,0
2016-10-24T00:07:09.758Z,0
2016-10-24T00:08:23.341Z,0
2016-10-24T00:09:36.890Z,0
2016-10-24T00:10:49.910Z,0
2016-10-24T00:12:03.434Z,0
2016-10-24T00:13:16.988Z,0
2016-10-24T00:14:30.506Z,0
2016-10-24T00:15:43.023Z,0
2016-10-24T00:16:56.490Z,0
2016-10-24T00:18:09.546Z,0
2016-10-24T00:19:22.505Z,0
2016-10-24T00:20:36.011Z,0
2016-10-24T00:21:48.555Z,4
2016-10-24T00:23:02.164Z,4
2016-10-24T00:24:15.691Z,0
2016-10-24T00:25:29.246Z,0
2016-10-24T00:26:42.804Z,0
2016-10-24T00:27:56.450Z,0
2016-10-24T00:29:09.997Z,0
2016-10-24T00:30:22.723Z,0
2016-10-24T00:31:36.313Z,4
2016-10-24T00:32:49.417Z,4
2016-10-24T00:34:02.929Z,4
2016-10-24T00:35:16.198Z,4
2016-10-24T00:36:29.721Z,4
2016-10-24T00:37:43.260Z,0
2016-10-24T00:38:56.337Z,0
2016-10-24T00:40:09.914Z,0
2016-10-24T00:41:22.419Z,4
2016-10-24T00:42:36.043Z,4
2016-10-24T00:43:49.043Z,0
2016-10-24T00:45:01.594Z,4
2016-10-24T00:46:14.833Z,0
2016-10-24T00:47:28.663Z,4
2016-10-24T00:48:41.692Z,0
2016-10-24T00:49:55.262Z,4
2016-10-24T00:51:08.832Z,4
2016-10-24T00:52:22.379Z,4
2016-10-24T00:53:35.416Z,4
2016-10-24T00:54:48.952Z,4
2016-10-24T00:56:01.996Z,4
2016-10-24T00:57:15.576Z,4
2016-10-24T00:58:28.676Z,4
2016-10-24T00:59:42.243Z,4
2016-10-24T01:00:55.837Z,4
2016-10-24T01:02:09.341Z,4
2016-10-24T01:03:22.904Z,4
2016-10-24T01:04:36.441Z,4
2016-10-24T01:05:49.978Z,4
2016-10-24T01:07:03.027Z,4
2016-10-24T01:08:16.612Z,4
2016-10-24T01:09:30.260Z,4
2016-10-24T01:10:43.838Z,4
2016-10-24T01:11:57.459Z,4
2016-10-24T01:13:11.029Z,4
2016-10-24T01:14:24.609Z,4
2016-10-24T01:15:37.608Z,4
2016-10-24T01:16:51.228Z,4
2016-10-24T01:18:04.780Z,4
2016-10-24T01:19:18.152Z,4
2016-10-24T01:20:31.706Z,4
2016-10-24T01:21:44.734Z,4
2016-10-24T01:22:57.435Z,4
2016-10-24T01:24:11.017Z,4
2016-10-24T01:25:23.969Z,4
2016-10-24T01:26:37.587Z,4
2016-10-24T01:27:50.118Z,4
2016-10-24T01:29:03.082Z,4
2016-10-24T01:30:16.163Z,4
2016-10-24T01:31:29.719Z,4
2016-10-24T01:32:43.232Z,0
2016-10-24T01:33:56.762Z,0
2016-10-24T01:35:10.359Z,0
2016-10-24T01:36:24.366Z,0
2016-10-24T01:37:37.967Z,0
2016-10-24T01:38:51.536Z,0
2016-10-24T01:40:04.529Z,0
2016-10-24T01:41:18.138Z,0
2016-10-24T01:42:31.650Z,0
2016-10-24T01:43:45.196Z,0
2016-10-24T01:44:58.195Z,0
2016-10-24T01:46:11.801Z,0
2016-10-24T01:47:24.828Z,0
2016-10-24T01:48:38.329Z,0
2016-10-24T01:49:51.355Z,0
2016-10-24T01:51:04.913Z,0
2016-10-24T01:52:18.487Z,0
2016-10-24T01:53:31.543Z,0
2016-10-24T01:54:45.163Z,0
2016-10-24T01:55:58.135Z,0
2016-10-24T01:57:11.702Z,0
2016-10-24T01:58:24.252Z,0
2016-10-24T01:59:37.798Z,0
2016-10-24T02:00:51.324Z,0
2016-10-24T02:02:04.827Z,0
2016-10-24T02:03:17.319Z,0
2016-10-24T02:04:29.830Z,0
2016-10-24T02:05:42.914Z,0
2016-10-24T02:06:55.724Z,0
2016-10-24T02:08:09.367Z,0
2016-10-24T02:09:21.823Z,0
2016-10-24T02:10:35.424Z,0
2016-10-24T02:11:49.003Z,0
2016-10-24T02:13:02.615Z,0
2016-10-24T02:14:16.206Z,0
2016-10-24T02:15:29.747Z,0
2016-10-24T02:16:43.267Z,0
2016-10-24T02:17:56.750Z,0
2016-10-24T02:19:10.291Z,0
2016-10-24T02:20:24.160Z,0
2016-10-24T02:21:37.190Z,0
2016-10-24T02:22:50.189Z,0
2016-10-24T02:24:03.701Z,0
2016-10-24T02:25:17.183Z,0
2016-10-24T02:26:30.712Z,0
2016-10-24T02:27:43.745Z,0
2016-10-24T02:28:56.762Z,0
2016-10-24T02:30:10.300Z,0
2016-10-24T02:31:24.327Z,0
2016-10-24T02:32:37.313Z,0
2016-10-24T02:33:51.169Z,0
2016-10-24T02:35:04.239Z,0
2016-10-24T02:36:18.016Z,0
2016-10-24T02:37:31.520Z,0
2016-10-24T02:38:44.499Z,0
2016-10-24T02:39:57.519Z,0
2016-10-24T02:41:11.078Z,0
2016-10-24T02:42:24.571Z,0
2016-10-24T02:43:38.089Z,0
2016-10-24T02:44:51.621Z,0
2016-10-24T02:46:05.237Z,0
2016-10-24T02:47:18.792Z,0
2016-10-24T02:48:32.379Z,0
2016-10-24T02:49:44.378Z,0
2016-10-24T02:50:57.979Z,0
2016-10-24T02:52:11.539Z,0
2016-10-24T02:53:25.033Z,0
2016-10-24T02:54:38.562Z,0
2016-10-24T02:55:52.141Z,0
2016-10-24T02:57:05.146Z,0
2016-10-24T02:58:18.735Z,0
2016-10-24T02:59:32.219Z,0
2016-10-24T03:00:45.811Z,0
2016-10-24T03:01:58.835Z,0
2016-10-24T03:03:11.877Z,0
2016-10-24T03:04:25.455Z,0
2016-10-24T03:05:39.041Z,0
2016-10-24T03:06:52.570Z,0
2016-10-24T03:08:05.581Z,0
2016-10-24T03:09:19.196Z,0
2016-10-24T03:10:32.959Z,0
2016-10-24T03:11:45.530Z,0
2016-10-24T03:12:59.022Z,0
2016-10-24T03:14:12.102Z,0
2016-10-24T03:15:25.641Z,0
2016-10-24T03:16:38.615Z,0
2016-10-24T03:17:52.141Z,0
2016-10-24T03:19:05.705Z,0
2016-10-24T03:20:19.274Z,0
2016-10-24T03:21:32.847Z,0
2016-10-24T03:22:46.369Z,0
2016-10-24T03:23:59.928Z,0
2016-10-24T03:25:13.895Z,0
2016-10-24T03:26:27.464Z,0
2016-10-24T03:27:40.459Z,0
2016-10-24T03:28:54.345Z,0
2016-10-24T03:30:07.395Z,0
2016-10-24T03:31:20.714Z,0
2016-10-24T03:32:34.308Z,0
2016-10-24T03:33:47.379Z,0
2016-10-24T03:35:00.952Z,0
2016-10-24T03:36:13.976Z,0
2016-10-24T03:37:27.533Z,0
2016-10-24T03:38:41.070Z,0
2016-10-24T03:39:54.632Z,0
2016-10-24T03:41:07.088Z,0
2016-10-24T03:42:20.722Z,0
2016-10-24T03:43:34.345Z,0
2016-10-24T03:44:48.215Z,0
2016-10-24T03:46:01.577Z,0
2016-10-24T03:47:15.083Z,0
2016-10-24T03:48:28.628Z,0
2016-10-24T03:49:41.630Z,0
2016-10-24T03:50:55.181Z,0
2016-10-24T03:52:08.760Z,0
2016-10-24T03:53:22.244Z,0
2016-10-24T03:54:35.748Z,0
2016-10-24T03:55:48.949Z,0
2016-10-24T03:57:02.463Z,0
2016-10-24T03:58:16.043Z,0
2016-10-24T03:59:29.097Z,0
2016-10-24T04:00:42.619Z,0
2016-10-24T04:01:56.229Z,0
2016-10-24T04:03:09.300Z,0
2016-10-24T04:04:22.842Z,0
2016-10-24T04:05:36.431Z,0
2016-10-24T04:06:49.954Z,0
2016-10-24T04:08:02.983Z,0
2016-10-24T04:09:15.982Z,0
2016-10-24T04:10:29.522Z,0
2016-10-24T04:11:43.072Z,0
2016-10-24T04:12:56.141Z,0
2016-10-24T04:14:09.536Z,0
2016-10-24T04:15:23.097Z,0
2016-10-24T04:16:36.142Z,0
2016-10-24T04:17:49.665Z,0
2016-10-24T04:19:02.117Z,0
2016-10-24T04:20:15.185Z,0
2016-10-24T04:21:28.790Z,0
2016-10-24T04:22:42.293Z,0
2016-10-24T04:23:55.369Z,0
2016-10-24T04:25:08.953Z,0
2016-10-24T04:26:22.553Z,0
2016-10-24T04:27:35.582Z,0
2016-10-24T04:28:49.076Z,0
2016-10-24T04:30:02.602Z,0
2016-10-24T04:31:15.687Z,0
2016-10-24T04:32:29.370Z,0
2016-10-24T04:33:42.407Z,0
2016-10-24T04:34:55.978Z,0
2016-10-24T04:36:09.230Z,0
2016-10-24T04:37:22.822Z,0
2016-10-24T04:38:36.147Z,0
2016-10-24T04:39:49.687Z,0
2016-10-24T04:41:02.738Z,0
2016-10-24T04:42:15.776Z,0
2016-10-24T04:43:29.321Z,0
2016-10-24T04:44:42.360Z,0
2016-10-24T04:45:55.380Z,0
2016-10-24T04:47:08.622Z,0
2016-10-24T04:48:22.182Z,0
2016-10-24T04:49:35.764Z,0
2016-10-24T04:50:49.358Z,0
2016-10-24T04:52:02.906Z,0
2016-10-24T04:53:16.559Z,0
2016-10-24T04:54:29.565Z,0
2016-10-24T04:55:42.611Z,0
2016-10-24T04:56:56.221Z,0
2016-10-24T04:58:09.786Z,0
2016-10-24T04:59:22.878Z,0
2016-10-24T05:00:36.359Z,0
2016-10-24T05:01:49.845Z,0
2016-10-24T05:03:03.345Z,0
2016-10-24T05:04:16.404Z,0
2016-10-24T05:05:29.963Z,0
2016-10-24T05:06:43.572Z,0
2016-10-24T05:07:57.520Z,0
2016-10-24T05:09:10.536Z,0
2016-10-24T05:10:24.355Z,0
2016-10-24T05:11:37.934Z,0
2016-10-24T05:12:51.240Z,0
2016-10-24T05:14:04.300Z,0
2016-10-24T05:15:17.238Z,0
2016-10-24T05:16:30.297Z,0
2016-10-24T05:17:43.275Z,0
2016-10-24T05:18:56.866Z,0
2016-10-24T05:20:10.449Z,0
2016-10-24T05:21:23.426Z,0
2016-10-24T05:22:36.905Z,0
2016-10-24T05:23:50.477Z,0
2016-10-24T05:25:04.082Z,0
2016-10-24T05:26:17.081Z,0
2016-10-24T05:27:30.182Z,0
2016-10-24T05:28:43.221Z,0
2016-10-24T05:29:56.743Z,0
2016-10-24T05:31:10.255Z,0
2016-10-24T05:32:23.808Z,0
2016-10-24T05:33:36.838Z,0
2016-10-24T05:34:49.806Z,0
2016-10-24T05:36:03.452Z,0
2016-10-24T05:37:17.005Z,0
2016-10-24T05:38:30.067Z,0
2016-10-24T05:39:43.634Z,0
2016-10-24T05:40:57.440Z,0
2016-10-24T05:42:11.042Z,0
2016-10-24T05:43:24.543Z,0
2016-10-24T05:44:38.107Z,0
2016-10-24T05:45:51.625Z,0
2016-10-24T05:47:04.653Z,0
2016-10-24T05:48:18.224Z,0
2016-10-24T05:49:31.781Z,0
2016-10-24T05:50:45.324Z,0
2016-10-24T05:51:57.870Z,0
2016-10-24T05:53:11.397Z,0
2016-10-24T05:54:24.966Z,0
2016-10-24T05:55:37.986Z,0
2016-10-24T05:56:51.536Z,0
2016-10-24T05:58:04.481Z,0
2016-10-24T05:59:17.738Z,0
2016-10-24T06:00:30.738Z,0
2016-10-24T06:01:44.299Z,0
2016-10-24T06:02:57.575Z,0
2016-10-24T06:04:11.123Z,0
2016-10-24T06:05:23.941Z,0
2016-10-24T06:06:36.919Z,0
2016-10-24T06:07:50.457Z,0
2016-10-24T06:09:03.954Z,0
2016-10-24T06:10:17.483Z,0
2016-10-24T06:11:30.993Z,0
2016-10-24T06:12:44.525Z,0
2016-10-24T06:13:58.093Z,0
2016-10-24T06:15:11.616Z,0
2016-10-24T06:16:25.195Z,0
2016-10-24T06:17:38.749Z,0
2016-10-24T06:18:51.282Z,0
2016-10-24T06:20:04.263Z,0
2016-10-24T06:21:17.854Z,0
2016-10-24T06:22:31.260Z,0
2016-10-24T06:23:44.798Z,0
2016-10-24T06:24:58.413Z,0
2016-10-24T06:26:11.996Z,0
2016-10-24T06:27:25.021Z,0
2016-10-24T06:28:38.095Z,0
2016-10-24T06:29:51.358Z,0
2016-10-24T06:31:04.843Z,0
2016-10-24T06:32:17.815Z,0
2016-10-24T06:33:30.301Z,0
2016-10-24T06:34:42.800Z,0
2016-10-24T06:35:56.357Z,0
2016-10-24T06:37:09.636Z,0
2016-10-24T06:38:22.685Z,0
2016-10-24T06:39:35.743Z,0
2016-10-24T06:40:49.295Z,0
2016-10-24T06:42:02.371Z,0
2016-10-24T06:43:15.445Z,0
2016-10-24T06:44:29.021Z,0
2016-10-24T06:45:41.533Z,0
2016-10-24T06:46:55.106Z,0
2016-10-24T06:48:08.206Z,0
2016-10-24T06:49:21.795Z,0
2016-10-24T06:50:35.322Z,0
2016-10-24T06:51:48.353Z,0
2016-10-24T06:53:01.854Z,0
2016-10-24T06:54:15.318Z,0
2016-10-24T06:55:28.839Z,0
2016-10-24T06:56:42.397Z,0
2016-10-24T06:57:54.896Z,0
2016-10-24T06:59:07.944Z,0
2016-10-24T07:00:19.891Z,0
2016-10-24T07:01:33.451Z,0
2016-10-24T07:02:47.020Z,0
2016-10-24T07:04:00.640Z,0
2016-10-24T07:05:14.229Z,0
2016-10-24T07:06:27.575Z,0
2016-10-24T07:07:41.086Z,0
2016-10-24T07:08:54.688Z,0
2016-10-24T07:10:08.358Z,0
2016-10-24T07:11:21.915Z,0
2016-10-24T07:12:34.369Z,0
2016-10-24T07:13:47.376Z,0
2016-10-24T07:15:00.887Z,0
2016-10-24T07:16:14.475Z,0
2016-10-24T07:17:28.048Z,0
2016-10-24T07:18:41.673Z,0
2016-10-24T07:19:55.216Z,0
2016-10-24T07:21:08.797Z,0
2016-10-24T07:22:21.394Z,0
2016-10-24T07:23:34.958Z,0
2016-10-24T07:24:48.484Z,0
2016-10-24T07:26:01.958Z,0
2016-10-24T07:27:14.730Z,0
2016-10-24T07:28:28.280Z,0
2016-10-24T07:29:41.904Z,0
2016-10-24T07:30:54.986Z,0
2016-10-24T07:32:08.017Z,0
2016-10-24T07:33:21.552Z,0
2016-10-24T07:34:35.058Z,0
2016-10-24T07:35:48.601Z,0
2016-10-24T07:37:01.959Z,0
2016-10-24T07:38:15.504Z,0
2016-10-24T07:39:28.462Z,0
2016-10-24T07:40:41.994Z,0
2016-10-24T07:41:54.936Z,0
2016-10-24T07:43:07.964Z,0
2016-10-24T07:44:21.565Z,0
2016-10-24T07:45:35.116Z,0
2016-10-24T07:46:48.393Z,0
2016-10-24T07:48:01.887Z,0
2016-10-24T07:49:14.345Z,0
2016-10-24T07:50:27.891Z,0
2016-10-24T07:51:40.893Z,0
2016-10-24T07:52:54.035Z,0
2016-10-24T07:54:07.601Z,0
2016-10-24T07:55:20.620Z,0
2016-10-24T07:56:33.153Z,0
2016-10-24T07:57:46.648Z,0
2016-10-24T07:59:00.218Z,0
2016-10-24T08:00:13.245Z,0
2016-10-24T08:01:26.792Z,0
2016-10-24T08:02:40.329Z,0
2016-10-24T08:03:53.909Z,0
2016-10-24T08:05:06.880Z,0
2016-10-24T08:06:20.496Z,0
2016-10-24T08:07:33.506Z,0
2016-10-24T08:08:46.526Z,0
2016-10-24T08:10:00.109Z,0
2016-10-24T08:11:13.731Z,0
2016-10-24T08:12:27.587Z,0
2016-10-24T08:13:40.899Z,4
2016-10-24T08:14:54.586Z,0
2016-10-24T08:16:08.180Z,4
2016-10-24T08:17:21.432Z,4
2016-10-24T08:18:34.672Z,4
2016-10-24T08:19:47.753Z,8
2016-10-24T08:21:00.953Z,8
2016-10-24T08:22:13.549Z,8
2016-10-24T08:23:27.171Z,12
2016-10-24T08:24:40.431Z,12
2016-10-24T08:25:53.691Z,16
2016-10-24T08:27:06.724Z,16
2016-10-24T08:28:20.292Z,20
2016-10-24T08:29:33.397Z,24
2016-10-24T08:30:46.944Z,24
2016-10-24T08:32:00.616Z,28
2016-10-24T08:33:14.170Z,28
2016-10-24T08:34:25.598Z,32
2016-10-24T08:35:39.151Z,36
2016-10-24T08:36:52.257Z,44
2016-10-24T08:38:05.814Z,48
2016-10-24T08:39:18.767Z,60
2016-10-24T08:40:32.341Z,68
2016-10-24T08:41:45.456Z,80
2016-10-24T08:42:59.025Z,92
2016-10-24T08:44:12.021Z,104
2016-10-24T08:45:25.569Z,116
2016-10-24T08:46:38.607Z,128
2016-10-24T08:47:52.194Z,136
2016-10-24T08:49:05.786Z,144
2016-10-24T08:50:19.343Z,148
2016-10-24T08:51:32.430Z,156
2016-10-24T08:52:45.999Z,164
2016-10-24T08:53:59.539Z,172
2016-10-24T08:55:12.565Z,188
2016-10-24T08:56:25.612Z,196
2016-10-24T08:57:38.637Z,208
2016-10-24T08:58:52.183Z,220
2016-10-24T09:00:05.770Z,232
2016-10-24T09:01:18.769Z,240
2016-10-24T09:02:32.297Z,248
2016-10-24T09:03:44.788Z,252
2016-10-24T09:04:58.363Z,256
2016-10-24T09:06:11.398Z,256
2016-10-24T09:07:24.935Z,260
2016-10-24T09:08:38.265Z,268
2016-10-24T09:09:51.761Z,268
2016-10-24T09:11:04.800Z,276
2016-10-24T09:12:18.364Z,272
2016-10-24T09:13:30.844Z,272
2016-10-24T09:14:43.841Z,280
2016-10-24T09:15:57.697Z,292
2016-10-24T09:17:11.215Z,300
2016-10-24T09:18:24.757Z,316
2016-10-24T09:19:37.759Z,324
2016-10-24T09:20:51.495Z,348
2016-10-24T09:22:04.486Z,396
2016-10-24T09:23:17.463Z,356
2016-10-24T09:24:30.751Z,368
2016-10-24T09:25:44.343Z,392
2016-10-24T09:26:57.703Z,396
2016-10-24T09:28:10.682Z,392
2016-10-24T09:29:24.613Z,388
2016-10-24T09:30:37.586Z,428
2016-10-24T09:31:51.463Z,476
2016-10-24T09:33:04.454Z,484
2016-10-24T09:34:18.352Z,468
2016-10-24T09:35:31.919Z,476
2016-10-24T09:36:44.349Z,512
2016-10-24T09:37:57.915Z,572
2016-10-24T09:39:10.891Z,660
2016-10-24T09:40:24.047Z,736
2016-10-24T09:41:37.574Z,748
2016-10-24T09:42:50.567Z,772
2016-10-24T09:44:04.096Z,756
2016-10-24T09:45:17.138Z,784
2016-10-24T09:46:30.818Z,824
2016-10-24T09:47:44.285Z,880
2016-10-24T09:48:57.878Z,912
2016-10-24T09:50:11.437Z,896
2016-10-24T09:51:24.013Z,864
2016-10-24T09:52:36.556Z,856
2016-10-24T09:53:50.172Z,900
2016-10-24T09:55:03.724Z,860
2016-10-24T09:56:17.264Z,928
2016-10-24T09:57:30.831Z,1000
2016-10-24T09:58:44.274Z,1048
2016-10-24T09:59:57.816Z,1096
2016-10-24T10:01:11.391Z,1116
2016-10-24T10:02:24.955Z,1128
2016-10-24T10:03:37.985Z,1144
2016-10-24T10:04:51.589Z,1152
2016-10-24T10:06:05.132Z,1172
2016-10-24T10:07:18.724Z,1176
2016-10-24T10:08:32.253Z,1148
2016-10-24T10:09:45.865Z,1128
2016-10-24T10:10:58.558Z,1136
2016-10-24T10:12:11.558Z,1156
2016-10-24T10:13:25.174Z,1160
2016-10-24T10:14:38.747Z,1132
2016-10-24T10:15:52.270Z,1112
2016-10-24T10:17:05.849Z,1064
2016-10-24T10:18:19.406Z,1036
2016-10-24T10:19:32.440Z,1020
2016-10-24T10:20:45.444Z,988
2016-10-24T10:21:58.439Z,924
2016-10-24T10:23:11.999Z,900
2016-10-24T10:24:24.981Z,920
2016-10-24T10:25:38.621Z,924
2016-10-24T10:26:52.180Z,908
2016-10-24T10:28:05.797Z,868
2016-10-24T10:29:19.346Z,856
2016-10-24T10:30:32.443Z,876
2016-10-24T10:31:46.160Z,900
2016-10-24T10:32:59.705Z,884
2016-10-24T10:34:13.335Z,860
2016-10-24T10:35:26.932Z,864
2016-10-24T10:36:40.522Z,864
2016-10-24T10:37:54.081Z,848
2016-10-24T10:39:07.657Z,828
2016-10-24T10:40:21.527Z,816
2016-10-24T10:41:35.134Z,832
2016-10-24T10:42:48.721Z,856
2016-10-24T10:44:02.203Z,868
2016-10-24T10:45:15.780Z,888
2016-10-24T10:46:28.832Z,900
2016-10-24T10:47:41.834Z,916
2016-10-24T10:48:55.431Z,928
2016-10-24T10:50:08.981Z,932
2016-10-24T10:51:22.466Z,936
2016-10-24T10:52:35.454Z,944
2016-10-24T10:53:48.945Z,936
2016-10-24T10:55:01.994Z,920
2016-10-24T10:56:14.493Z,900
2016-10-24T10:57:27.541Z,888
2016-10-24T10:58:41.140Z,840
2016-10-24T10:59:54.155Z,848
2016-10-24T11:01:07.738Z,832
2016-10-24T11:02:21.499Z,840
2016-10-24T11:03:35.086Z,848
2016-10-24T11:04:48.691Z,840
2016-10-24T11:06:02.315Z,828
2016-10-24T11:07:15.864Z,832
2016-10-24T11:08:28.945Z,836
2016-10-24T11:09:42.557Z,848
2016-10-24T11:10:55.584Z,868
2016-10-24T11:12:08.653Z,904
2016-10-24T11:13:22.182Z,928
2016-10-24T11:14:35.152Z,936
2016-10-24T11:15:48.436Z,944
2016-10-24T11:17:02.006Z,948
2016-10-24T11:18:15.601Z,948
2016-10-24T11:19:28.616Z,932
2016-10-24T11:20:42.177Z,948
2016-10-24T11:21:54.996Z,972
2016-10-24T11:23:07.427Z,980
2016-10-24T11:24:20.124Z,988
2016-10-24T11:25:33.753Z,1004
2016-10-24T11:26:47.305Z,1012
2016-10-24T11:28:00.647Z,1004
2016-10-24T11:29:14.195Z,1004
2016-10-24T11:30:27.227Z,1016
2016-10-24T11:31:40.780Z,1056
2016-10-24T11:32:54.139Z,1092
2016-10-24T11:34:07.754Z,1120
2016-10-24T11:35:20.822Z,1148
2016-10-24T11:36:34.339Z,1176
2016-10-24T11:37:47.906Z,1168
2016-10-24T11:38:59.877Z,1204
2016-10-24T11:40:13.450Z,1252
2016-10-24T11:41:26.429Z,1272
2016-10-24T11:42:39.439Z,1344
2016-10-24T11:43:52.458Z,1360
2016-10-24T11:45:05.998Z,1360
2016-10-24T11:46:19.822Z,1412
2016-10-24T11:47:33.355Z,1472
2016-10-24T11:48:46.909Z,1540
2016-10-24T11:50:00.731Z,1628
2016-10-24T11:51:13.674Z,1716
2016-10-24T11:52:27.302Z,1796
2016-10-24T11:53:40.901Z,1884
2016-10-24T11:54:54.129Z,2012
2016-10-24T11:56:07.159Z,2100
2016-10-24T11:57:20.158Z,2200
2016-10-24T11:58:33.263Z,2292
2016-10-24T11:59:46.797Z,2412
2016-10-24T12:01:00.305Z,2528
2016-10-24T12:02:13.375Z,2608
2016-10-24T12:03:26.871Z,2720
2016-10-24T12:04:40.393Z,2848
2016-10-24T12:05:53.454Z,2948
2016-10-24T12:07:06.487Z,3044
2016-10-24T12:08:20.056Z,3188
2016-10-24T12:09:33.606Z,3288
2016-10-24T12:10:47.191Z,3340
2016-10-24T12:12:00.718Z,3416
2016-10-24T12:13:14.267Z,3376
2016-10-24T12:14:27.793Z,3480
2016-10-24T12:15:41.317Z,3412
2016-10-24T12:16:54.888Z,3516
2016-10-24T12:18:08.404Z,3564
2016-10-24T12:19:22.036Z,3664
2016-10-24T12:20:35.074Z,3640
2016-10-24T12:21:48.450Z,3676
2016-10-24T12:23:01.523Z,3652
2016-10-24T12:24:14.514Z,3620
2016-10-24T12:25:27.766Z,3720
2016-10-24T12:26:41.424Z,3836
2016-10-24T12:27:54.442Z,4000
2016-10-24T12:29:07.986Z,4172
2016-10-24T12:30:21.559Z,4188
2016-10-24T12:31:34.778Z,4236
2016-10-24T12:32:48.435Z,4276
2016-10-24T12:34:01.436Z,4332
2016-10-24T12:35:14.328Z,4400
2016-10-24T12:36:27.868Z,4428
2016-10-24T12:37:41.435Z,4436
2016-10-24T12:38:54.194Z,4436
2016-10-24T12:40:07.499Z,4712
2016-10-24T12:41:21.067Z,4824
2016-10-24T12:42:34.311Z,4776
2016-10-24T12:43:47.555Z,4776
2016-10-24T12:45:01.096Z,4812
2016-10-24T12:46:14.309Z,4872
2016-10-24T12:47:27.904Z,4960
2016-10-24T12:48:40.985Z,5108
2016-10-24T12:49:53.964Z,5108
2016-10-24T12:51:06.488Z,5276
2016-10-24T12:52:20.081Z,5380
2016-10-24T12:53:33.649Z,5488
2016-10-24T12:54:46.675Z,5536
2016-10-24T12:55:59.730Z,5536
2016-10-24T12:57:13.230Z,5564
2016-10-24T12:58:26.778Z,5640
2016-10-24T12:59:40.371Z,5752
2016-10-24T13:00:53.392Z,5800
2016-10-24T13:02:07.032Z,5876
2016-10-24T13:03:20.569Z,5932
2016-10-24T13:04:34.151Z,5972
2016-10-24T13:05:47.771Z,6028
2016-10-24T13:07:01.330Z,6120
2016-10-24T13:08:14.342Z,6216
2016-10-24T13:09:27.980Z,6312
2016-10-24T13:10:41.333Z,6492
2016-10-24T13:11:54.945Z,6492
2016-10-24T13:13:08.513Z,6472
2016-10-24T13:14:21.858Z,6700
2016-10-24T13:15:35.445Z,6808
2016-10-24T13:16:49.067Z,6908
2016-10-24T13:18:02.000Z,7024
2016-10-24T13:19:15.599Z,7064
2016-10-24T13:20:29.180Z,7168
2016-10-24T13:21:42.249Z,7264
2016-10-24T13:22:54.973Z,7284
2016-10-24T13:24:08.483Z,7288
2016-10-24T13:25:22.046Z,6616
2016-10-24T13:26:35.091Z,5688
2016-10-24T13:27:48.155Z,5408
2016-10-24T13:29:00.985Z,7452
2016-10-24T13:30:14.497Z,3356
2016-10-24T13:31:27.760Z,5760
2016-10-24T13:32:40.870Z,7372
2016-10-24T13:33:54.725Z,8284
2016-10-24T13:35:07.786Z,7424
2016-10-24T13:36:21.608Z,7768
2016-10-24T13:37:35.152Z,7828
2016-10-24T13:38:48.692Z,7500
2016-10-24T13:40:02.332Z,7836
2016-10-24T13:41:15.383Z,8368
2016-10-24T13:42:28.929Z,8536
2016-10-24T13:43:41.988Z,8932
2016-10-24T13:44:55.572Z,8864
2016-10-24T13:46:09.243Z,8888
2016-10-24T13:47:22.758Z,9076
2016-10-24T13:48:36.387Z,9136
2016-10-24T13:49:49.368Z,9176
2016-10-24T13:51:02.910Z,9212
2016-10-24T13:52:16.470Z,9228
2016-10-24T13:53:30.029Z,9564
2016-10-24T13:54:43.585Z,9720
2016-10-24T13:55:56.861Z,9772
2016-10-24T13:57:10.499Z,9840
2016-10-24T13:58:23.546Z,9932
2016-10-24T13:59:37.116Z,10128
2016-10-24T14:00:50.638Z,10360
2016-10-24T14:02:03.182Z,10348
2016-10-24T14:03:16.205Z,10604
2016-10-24T14:04:29.769Z,10464
2016-10-24T14:05:43.312Z,10484
2016-10-24T14:06:56.403Z,10944
2016-10-24T14:08:09.484Z,11260
2016-10-24T14:09:23.098Z,11580
2016-10-24T14:10:35.598Z,11920
2016-10-24T14:11:49.228Z,12064
2016-10-24T14:13:02.827Z,11928
2016-10-24T14:14:15.897Z,11856
2016-10-24T14:15:29.554Z,11976
2016-10-24T14:16:43.115Z,11660
2016-10-24T14:17:56.754Z,11572
2016-10-24T14:19:09.802Z,11696
2016-10-24T14:20:23.394Z,11816
2016-10-24T14:21:36.646Z,11988
2016-10-24T14:22:50.203Z,12076
2016-10-24T14:24:03.721Z,12072
2016-10-24T14:25:16.745Z,12112
2016-10-24T14:26:29.750Z,12432
2016-10-24T14:27:42.857Z,12624
2016-10-24T14:28:56.478Z,12900
2016-10-24T14:30:09.524Z,12892
2016-10-24T14:31:23.138Z,13112
2016-10-24T14:32:36.175Z,13176
2016-10-24T14:33:49.699Z,13224
2016-10-24T14:35:02.725Z,13176
2016-10-24T14:36:15.725Z,13220
2016-10-24T14:37:28.324Z,13136
2016-10-24T14:38:40.599Z,13228
2016-10-24T14:39:54.140Z,13124
2016-10-24T14:41:07.693Z,13600
2016-10-24T14:42:20.748Z,14048
2016-10-24T14:43:34.282Z,14016
2016-10-24T14:44:47.301Z,2832
2016-10-24T14:46:00.388Z,13568
2016-10-24T14:47:13.927Z,14336
2016-10-24T14:48:26.410Z,11256
2016-10-24T14:49:39.426Z,3048
2016-10-24T14:50:53.129Z,8324
2016-10-24T14:52:06.181Z,3248
2016-10-24T14:53:19.288Z,14048
2016-10-24T14:54:32.055Z,13728
2016-10-24T14:55:45.662Z,10816
2016-10-24T14:56:58.693Z,13952
2016-10-24T14:58:11.827Z,14464
2016-10-24T14:59:25.348Z,14112
2016-10-24T15:00:38.943Z,13600
2016-10-24T15:01:52.040Z,14048
2016-10-24T15:03:05.666Z,14368
2016-10-24T15:04:19.277Z,14400
2016-10-24T15:05:32.050Z,10816
2016-10-24T15:06:45.563Z,11236
2016-10-24T15:07:59.210Z,12992
2016-10-24T15:09:12.829Z,3280
2016-10-24T15:10:26.137Z,13824
2016-10-24T15:11:39.735Z,14368
2016-10-24T15:12:53.265Z,12680
2016-10-24T15:14:06.854Z,3176
2016-10-24T15:15:19.864Z,3292
2016-10-24T15:16:32.954Z,3116
2016-10-24T15:17:46.519Z,5616
2016-10-24T15:18:59.764Z,3124
2016-10-24T15:20:13.303Z,3200
2016-10-24T15:21:26.815Z,2732
2016-10-24T15:22:39.760Z,2676
2016-10-24T15:23:53.045Z,2756
2016-10-24T15:25:05.579Z,2844
2016-10-24T15:26:18.646Z,2812
2016-10-24T15:27:32.257Z,3140
2016-10-24T15:28:45.070Z,2696
2016-10-24T15:29:58.140Z,2620
2016-10-24T15:31:11.710Z,2508
2016-10-24T15:32:25.239Z,4392
2016-10-24T15:33:38.274Z,3048
2016-10-24T15:34:51.644Z,3320
2016-10-24T15:36:04.604Z,9032
2016-10-24T15:37:16.510Z,10084
2016-10-24T15:38:29.604Z,14688
2016-10-24T15:39:43.244Z,14528
2016-10-24T15:40:56.781Z,14464
2016-10-24T15:42:09.863Z,14560
2016-10-24T15:43:22.344Z,15104
2016-10-24T15:44:35.931Z,15680
2016-10-24T15:45:49.019Z,16000
2016-10-24T15:47:02.128Z,15776
2016-10-24T15:48:15.172Z,15360
2016-10-24T15:49:29.015Z,15264
2016-10-24T15:50:42.064Z,15040
2016-10-24T15:51:54.569Z,2472
2016-10-24T15:53:08.138Z,2280
2016-10-24T15:54:20.666Z,2708
2016-10-24T15:55:34.240Z,2444
2016-10-24T15:56:47.815Z,2096
2016-10-24T15:58:00.875Z,2112
2016-10-24T15:59:13.946Z,2356
2016-10-24T16:00:27.839Z,2860
2016-10-24T16:01:41.373Z,3252
2016-10-24T16:02:54.881Z,3132
2016-10-24T16:04:07.981Z,9272
2016-10-24T16:05:21.142Z,14624
2016-10-24T16:06:34.147Z,14720
2016-10-24T16:07:47.581Z,14464
2016-10-24T16:09:00.954Z,14336
2016-10-24T16:10:14.506Z,14208
2016-10-24T16:11:27.917Z,14592
2016-10-24T16:12:41.478Z,14688
2016-10-24T16:13:54.747Z,14176
2016-10-24T16:15:08.328Z,13792
2016-10-24T16:16:21.668Z,13376
2016-10-24T16:17:35.257Z,13120
2016-10-24T16:18:48.841Z,12976
2016-10-24T16:20:02.401Z,12584
2016-10-24T16:21:15.397Z,13824
2016-10-24T16:22:28.540Z,13408
2016-10-24T16:23:42.214Z,13728
2016-10-24T16:24:55.273Z,14528
2016-10-24T16:26:08.771Z,14816
2016-10-24T16:27:22.334Z,12072
2016-10-24T16:28:35.384Z,14976
2016-10-24T16:29:48.590Z,14624
2016-10-24T16:31:01.618Z,14048
2016-10-24T16:32:15.196Z,14272
2016-10-24T16:33:29.083Z,14432
2016-10-24T16:34:42.643Z,14368
2016-10-24T16:35:56.225Z,14048
2016-10-24T16:37:09.827Z,13504
2016-10-24T16:38:23.220Z,13440
2016-10-24T16:39:36.848Z,13124
2016-10-24T16:40:50.359Z,4400
2016-10-24T16:42:03.379Z,12796
2016-10-24T16:43:16.917Z,12292
2016-10-24T16:44:30.508Z,1872
2016-10-24T16:45:43.557Z,1656
2016-10-24T16:46:57.137Z,1456
2016-10-24T16:48:10.133Z,1372
2016-10-24T16:49:23.687Z,1324
2016-10-24T16:50:37.295Z,1260
2016-10-24T16:51:50.880Z,1300
2016-10-24T16:53:04.447Z,1348
2016-10-24T16:54:17.723Z,1480
2016-10-24T16:55:31.261Z,1484
2016-10-24T16:56:44.783Z,1584
2016-10-24T16:57:58.361Z,8572
2016-10-24T16:59:11.420Z,8656
2016-10-24T17:00:23.771Z,8652
2016-10-24T17:01:37.375Z,9124
2016-10-24T17:02:50.532Z,9436
2016-10-24T17:04:03.062Z,9640
2016-10-24T17:05:16.646Z,9508
2016-10-24T17:06:29.685Z,9616
2016-10-24T17:07:42.838Z,9888
2016-10-24T17:08:56.401Z,9972